createdAt,value
2023-05-01T00:00:06.502Z,99.90
2023-05-01T00:05:11.608Z,99.90
2023-05-01T00:10:17.527Z,99.90
2023-05-01T00:15:21.531Z,99.90
2023-05-01T00:20:26.950Z,99.90
2023-05-01T00:25:31.636Z,99.90
2023-05-01T00:30:35.502Z,99.90
2023-05-01T00:35:39.183Z,99.90
2023-05-01T00:40:44.868Z,99.90
2023-05-01T00:45:48.942Z,99.90
2023-05-01T00:50:54.148Z,99.90
2023-05-01T00:56:00.023Z,99.90
2023-05-01T01:01:05.312Z,99.90
2023-05-01T01:06:22.981Z,99.90
2023-05-01T01:11:36.465Z,99.90
2023-05-01T01:16:45.397Z,99.90
2023-05-01T01:21:54.611Z,99.90
2023-05-01T01:27:33.668Z,99.90
2023-05-01T01:33:17.891Z,99.90
2023-05-01T01:38:27.768Z,99.90
2023-05-01T01:43:38.567Z,99.90
2023-05-01T01:48:46.539Z,99.90
2023-05-01T01:53:54.180Z,99.90
2023-05-01T01:59:00.578Z,99.90
2023-05-01T02:04:05.470Z,99.90
2023-05-01T02:09:12.856Z,99.90
2023-05-01T02:14:20.085Z,99.90
2023-05-01T02:19:24.127Z,99.90
2023-05-01T02:24:31.002Z,99.90
2023-05-01T02:29:35.252Z,99.90
2023-05-01T02:34:38.591Z,99.90
2023-05-01T02:39:43.881Z,99.90
2023-05-01T02:44:52.126Z,99.90
2023-05-01T02:49:57.820Z,99.90
2023-05-01T02:55:04.004Z,99.90
2023-05-01T03:00:14.061Z,99.90
2023-05-01T03:05:19.992Z,99.90
2023-05-01T03:10:26.038Z,99.90
2023-05-01T03:15:30.095Z,99.90
2023-05-01T03:20:34.166Z,99.90
2023-05-01T03:25:40.822Z,99.90
2023-05-01T03:30:44.659Z,99.90
2023-05-01T03:35:48.138Z,99.90
2023-05-01T03:40:53.759Z,99.90
2023-05-01T03:46:03.416Z,99.90
2023-05-01T03:51:08.772Z,99.90
2023-05-01T03:56:14.636Z,99.90
2023-05-01T04:01:18.548Z,99.90
2023-05-01T04:06:23.589Z,99.90
2023-05-01T04:11:28.470Z,99.90
2023-05-01T04:16:32.408Z,99.90
2023-05-01T04:21:36.161Z,99.90
2023-05-01T04:26:42.691Z,99.90
2023-05-01T04:31:46.800Z,99.90
2023-05-01T04:36:51.896Z,99.90
2023-05-01T04:41:56.526Z,99.90
2023-05-01T04:47:02.965Z,99.90
2023-05-01T04:52:06.589Z,99.90
2023-05-01T04:57:25.969Z,99.90
2023-05-01T05:02:30.057Z,99.90
2023-05-01T05:07:33.476Z,99.90
2023-05-01T05:12:57.483Z,99.90
2023-05-01T05:18:01.034Z,99.90
2023-05-01T05:23:05.052Z,99.90
2023-05-01T05:28:10.604Z,97.90
2023-05-01T05:33:15.940Z,91.10
2023-05-01T05:38:20.341Z,82.80
2023-05-01T05:43:28.954Z,74.50
2023-05-01T05:48:33.430Z,74.90
2023-05-01T05:53:37.242Z,70.50
2023-05-01T05:58:42.028Z,67.70
2023-05-01T06:03:45.449Z,64.30
2023-05-01T06:08:49.206Z,64.20
2023-05-01T06:13:54.476Z,60.90
2023-05-01T06:18:58.285Z,60.50
2023-05-01T06:24:01.992Z,57.30
2023-05-01T06:29:27.282Z,54.50
2023-05-01T06:34:31.180Z,53.50
2023-05-01T06:39:35.787Z,53.90
2023-05-01T06:44:40.683Z,54.50
2023-05-01T06:49:45.394Z,51.50
2023-05-01T06:54:48.754Z,52.30
2023-05-01T06:59:54.386Z,50.00
2023-05-01T07:04:58.081Z,52.30
2023-05-01T07:10:01.796Z,49.40
2023-05-01T07:15:08.198Z,50.70
2023-05-01T07:20:12.655Z,46.70
2023-05-01T07:25:16.271Z,50.50
2023-05-01T07:30:21.971Z,48.80
2023-05-01T07:35:25.569Z,47.50
2023-05-01T07:40:28.920Z,48.70
2023-05-01T07:45:33.798Z,47.70
2023-05-01T07:57:45.674Z,48.50
2023-05-01T08:02:51.849Z,48.10
2023-05-01T08:07:57.701Z,47.90
2023-05-01T08:13:01.493Z,48.10
2023-05-01T08:18:06.642Z,44.60
2023-05-01T08:23:10.054Z,46.10
2023-05-01T08:28:14.733Z,46.10
2023-05-01T08:33:19.592Z,45.90
2023-05-01T08:38:23.292Z,46.40
2023-05-01T08:43:30.574Z,45.90
2023-05-01T08:48:36.915Z,45.40
2023-05-01T08:53:42.101Z,42.80
2023-05-01T08:58:49.284Z,42.00
2023-05-01T09:03:55.359Z,41.60
2023-05-01T09:08:59.288Z,44.60
2023-05-01T09:14:05.749Z,46.00
2023-05-01T09:19:11.752Z,43.10
2023-05-01T09:24:15.496Z,40.90
2023-05-01T09:29:39.286Z,41.50
2023-05-01T09:34:45.194Z,39.80
2023-05-01T09:39:48.628Z,40.90
2023-05-01T09:44:52.637Z,42.80
2023-05-01T09:49:59.673Z,39.40
2023-05-01T09:55:13.896Z,41.00
2023-05-01T10:00:20.549Z,41.30
2023-05-01T10:05:26.292Z,41.60
2023-05-01T10:10:31.489Z,41.80
2023-05-01T10:15:36.338Z,41.10
2023-05-01T10:20:41.313Z,41.80
2023-05-01T10:25:44.914Z,42.70
2023-05-01T10:30:49.405Z,43.70
2023-05-01T10:35:59.317Z,40.00
2023-05-01T10:41:02.731Z,43.10
2023-05-01T10:46:27.772Z,41.40
2023-05-01T10:51:32.550Z,43.00
2023-05-01T10:56:43.370Z,42.40
2023-05-01T11:01:51.850Z,43.90
2023-05-01T11:07:17.731Z,43.60
2023-05-01T11:12:51.637Z,42.80
2023-05-01T11:17:56.139Z,43.30
2023-05-01T11:23:01.218Z,46.70
2023-05-01T11:28:06.776Z,45.00
2023-05-01T11:33:11.271Z,42.80
2023-05-01T11:38:19.471Z,43.20
2023-05-01T11:43:23.490Z,40.70
2023-05-01T11:48:28.152Z,41.40
2023-05-01T11:53:32.912Z,44.30
2023-05-01T11:58:36.923Z,46.10
2023-05-01T12:03:44.074Z,43.70
2023-05-01T12:08:51.986Z,40.70
2023-05-01T12:13:55.607Z,43.60
2023-05-01T12:18:59.095Z,43.40
2023-05-01T12:24:10.479Z,47.30
2023-05-01T12:29:14.347Z,44.50
2023-05-01T12:34:18.212Z,47.50
2023-05-01T12:39:23.724Z,47.20
2023-05-01T12:50:41.583Z,41.00
2023-05-01T12:55:48.214Z,41.40
2023-05-01T13:00:53.577Z,42.00
2023-05-01T13:05:58.529Z,42.30
2023-05-01T13:11:10.806Z,42.20
2023-05-01T13:16:16.242Z,44.50
2023-05-01T13:21:21.592Z,43.90
2023-05-01T13:26:29.058Z,44.50
2023-05-01T13:31:32.960Z,44.80
2023-05-01T13:36:36.466Z,43.10
2023-05-01T13:41:42.776Z,44.40
2023-05-01T13:47:27.257Z,43.10
2023-05-01T13:52:31.384Z,44.40
2023-05-01T13:57:38.425Z,42.30
2023-05-01T14:02:45.204Z,42.50
2023-05-01T14:07:55.240Z,40.10
2023-05-01T14:13:00.286Z,40.10
2023-05-01T14:18:07.276Z,42.10
2023-05-01T14:23:10.931Z,43.10
2023-05-01T14:28:16.082Z,42.10
2023-05-01T14:33:19.657Z,43.50
2023-05-01T14:38:25.684Z,43.90
2023-05-01T14:43:31.614Z,45.50
2023-05-01T14:48:36.272Z,46.20
2023-05-01T14:53:42.470Z,44.40
2023-05-01T14:58:47.407Z,44.70
2023-05-01T15:03:50.885Z,44.00
2023-05-01T15:08:54.331Z,43.50
2023-05-01T15:13:59.178Z,42.20
2023-05-01T15:19:02.560Z,43.60
2023-05-01T15:24:06.136Z,45.40
2023-05-01T15:29:10.885Z,47.50
2023-05-01T15:34:14.140Z,47.20
2023-05-01T15:39:17.911Z,48.30
2023-05-01T15:44:22.997Z,48.10
2023-05-01T15:49:26.526Z,49.50
2023-05-01T15:54:29.874Z,48.30
2023-05-01T15:59:35.070Z,51.00
2023-05-01T16:04:39.081Z,50.60
2023-05-01T16:09:43.250Z,50.20
2023-05-01T16:14:48.660Z,47.90
2023-05-01T16:19:52.781Z,48.40
2023-05-01T16:24:58.101Z,47.70
2023-05-01T16:30:05.460Z,49.00
2023-05-01T16:35:10.966Z,50.10
2023-05-01T16:40:17.118Z,47.00
2023-05-01T16:45:21.958Z,50.30
2023-05-01T16:50:25.494Z,51.00
2023-05-01T16:55:28.850Z,50.70
2023-05-01T17:00:33.526Z,51.60
2023-05-01T17:05:36.944Z,51.80
2023-05-01T17:10:40.864Z,52.80
2023-05-01T17:15:45.653Z,52.80
2023-05-01T17:20:49.075Z,57.50
2023-05-01T17:25:52.434Z,57.10
2023-05-01T17:30:57.202Z,57.70
2023-05-01T17:36:00.771Z,58.70
2023-05-01T17:41:04.539Z,64.70
2023-05-01T17:46:09.400Z,66.20
2023-05-01T17:51:15.685Z,68.20
2023-05-01T17:56:19.084Z,71.40
2023-05-01T18:01:23.974Z,68.90
2023-05-01T18:06:27.520Z,74.00
2023-05-01T18:11:31.546Z,72.50
2023-05-01T18:16:36.331Z,73.00
2023-05-01T18:21:39.837Z,75.60
2023-05-01T18:26:43.790Z,78.90
2023-05-01T18:31:50.918Z,79.50
2023-05-01T18:36:54.815Z,81.40
2023-05-01T18:41:58.177Z,86.00
2023-05-01T18:47:04.193Z,86.80
2023-05-01T18:52:08.535Z,87.90
2023-05-01T18:57:11.894Z,90.20
2023-05-01T19:02:16.611Z,90.50
2023-05-01T19:07:19.953Z,90.80
2023-05-01T19:12:23.432Z,90.90
2023-05-01T19:17:28.215Z,91.60
2023-05-01T19:22:32.176Z,92.30
2023-05-01T19:27:35.536Z,92.60
2023-05-01T19:32:42.841Z,93.30
2023-05-01T19:37:48.160Z,94.80
2023-05-01T19:42:52.774Z,96.00
2023-05-01T19:47:58.066Z,96.80
2023-05-01T19:53:05.186Z,97.90
2023-05-01T19:58:10.996Z,98.20
2023-05-01T20:03:16.674Z,98.60
2023-05-01T20:08:20.708Z,98.80
2023-05-01T20:13:24.840Z,99.50
2023-05-01T20:18:29.660Z,99.90
2023-05-01T20:23:34.707Z,99.90
2023-05-01T20:28:38.075Z,99.90
2023-05-01T20:33:44.338Z,99.90
2023-05-01T20:38:48.639Z,99.90
2023-05-01T20:43:52.185Z,99.90
2023-05-01T20:48:57.299Z,99.90
2023-05-01T20:54:00.952Z,99.90
2023-05-01T20:59:04.884Z,99.90
2023-05-01T21:04:09.799Z,99.90
2023-05-01T21:09:15.092Z,99.90
2023-05-01T21:14:18.523Z,99.90
2023-05-01T21:19:23.233Z,99.90
2023-05-01T21:24:27.397Z,99.90
2023-05-01T21:29:30.945Z,99.90
2023-05-01T21:34:35.707Z,99.90
2023-05-01T21:39:39.235Z,99.90
2023-05-01T21:44:43.689Z,99.90
2023-05-01T21:49:49.010Z,99.90
2023-05-01T21:54:52.432Z,99.90
2023-05-01T21:59:58.488Z,99.90
2023-05-01T22:05:03.687Z,99.90
2023-05-01T22:10:08.991Z,99.90
2023-05-01T22:15:13.766Z,99.90
2023-05-01T22:20:18.943Z,99.90
2023-05-01T22:25:22.635Z,99.90
2023-05-01T22:30:26.073Z,99.90
2023-05-01T22:35:30.973Z,99.90
2023-05-01T22:40:34.666Z,99.90
2023-05-01T22:45:38.708Z,99.90
2023-05-01T22:50:43.860Z,99.90
2023-05-01T22:55:47.148Z,99.90
2023-05-01T23:00:50.547Z,99.90
2023-05-01T23:05:55.737Z,99.90
2023-05-01T23:10:59.059Z,99.90
2023-05-01T23:16:03.137Z,99.90
2023-05-01T23:21:07.779Z,99.90
2023-05-01T23:26:18.359Z,99.90
2023-05-01T23:31:25.700Z,99.90
2023-05-01T23:36:31.173Z,99.90
2023-05-01T23:41:34.523Z,99.90
2023-05-01T23:46:38.525Z,99.90
2023-05-01T23:51:43.593Z,99.90
2023-05-01T23:56:46.860Z,99.90
